createdAt,value
2023-03-11T00:00:49.647Z,26.00
2023-03-11T00:03:18.708Z,30.40
2023-03-11T00:05:47.041Z,31.60
2023-03-11T00:08:21.679Z,31.60
2023-03-11T00:10:55.502Z,29.30
2023-03-11T00:13:27.038Z,32.40
2023-03-11T00:15:56.385Z,31.30
2023-03-11T00:18:31.847Z,27.10
2023-03-11T00:21:00.913Z,32.00
2023-03-11T00:23:29.274Z,35.10
2023-03-11T00:26:00.068Z,34.00
2023-03-11T00:28:30.462Z,31.90
2023-03-11T00:30:59.696Z,31.10
2023-03-11T00:33:29.492Z,31.20
2023-03-11T00:35:59.167Z,35.40
2023-03-11T00:38:28.731Z,30.40
2023-03-11T00:40:56.833Z,28.60
2023-03-11T00:43:25.213Z,34.90
2023-03-11T00:45:53.332Z,30.90
2023-03-11T00:48:23.646Z,30.80
2023-03-11T00:50:53.040Z,29.40
2023-03-11T00:53:25.110Z,27.30
2023-03-11T00:55:53.481Z,31.40
2023-03-11T00:58:27.392Z,30.10
2023-03-11T01:00:57.550Z,29.40
2023-03-11T01:03:26.530Z,31.00
2023-03-11T01:05:56.255Z,27.50
2023-03-11T01:08:27.256Z,31.30
2023-03-11T01:10:58.441Z,29.20
2023-03-11T01:13:29.486Z,28.80
2023-03-11T01:15:57.689Z,25.60
2023-03-11T01:18:26.076Z,26.10
2023-03-11T01:20:55.058Z,28.00
2023-03-11T01:23:23.266Z,25.30
2023-03-11T01:25:51.346Z,28.50
2023-03-11T01:28:20.084Z,30.20
2023-03-11T01:30:48.884Z,27.30
2023-03-11T01:33:18.854Z,24.20
2023-03-11T01:35:47.261Z,23.40
2023-03-11T01:38:16.334Z,21.50
2023-03-11T01:40:49.017Z,23.20
2023-03-11T01:43:37.355Z,21.50
2023-03-11T01:46:31.747Z,20.40
2023-03-11T01:49:01.905Z,22.90
2023-03-11T01:51:42.907Z,23.40
2023-03-11T01:54:23.523Z,21.80
2023-03-11T01:56:53.219Z,19.20
2023-03-11T01:59:25.604Z,22.80
2023-03-11T02:01:56.100Z,21.70
2023-03-11T02:04:24.804Z,21.30
2023-03-11T02:06:56.472Z,25.40
2023-03-11T02:09:27.201Z,21.20
2023-03-11T02:11:56.787Z,21.80
2023-03-11T02:14:25.016Z,22.50
2023-03-11T02:16:57.895Z,23.60
2023-03-11T02:19:38.693Z,21.90
2023-03-11T02:22:06.838Z,23.60
2023-03-11T02:24:43.924Z,19.80
2023-03-11T02:27:17.373Z,20.10
2023-03-11T02:29:49.755Z,21.10
2023-03-11T02:32:18.366Z,16.80
2023-03-11T02:34:46.580Z,22.30
2023-03-11T02:37:16.233Z,19.30
2023-03-11T02:39:50.523Z,21.90
2023-03-11T02:42:24.306Z,20.80
2023-03-11T02:45:00.593Z,19.80
2023-03-11T02:47:29.962Z,20.50
2023-03-11T02:49:59.701Z,19.60
2023-03-11T02:52:28.724Z,19.80
2023-03-11T02:54:58.256Z,22.10
2023-03-11T02:57:26.420Z,21.30
2023-03-11T02:59:55.214Z,20.10
2023-03-11T03:02:23.520Z,21.90
2023-03-11T03:04:55.090Z,20.20
2023-03-11T03:07:24.936Z,20.90
2023-03-11T03:09:53.219Z,21.70
2023-03-11T03:12:21.394Z,20.40
2023-03-11T03:14:51.318Z,18.90
2023-03-11T03:17:20.073Z,17.80
2023-03-11T03:19:48.500Z,21.00
2023-03-11T03:22:18.520Z,17.00
2023-03-11T03:24:47.152Z,20.80
2023-03-11T03:27:15.277Z,21.80
2023-03-11T03:29:44.063Z,19.00
2023-03-11T03:32:17.291Z,20.50
2023-03-11T03:34:46.049Z,18.90
2023-03-11T03:37:14.154Z,24.00
2023-03-11T03:39:43.477Z,19.40
2023-03-11T03:42:12.544Z,21.30
2023-03-11T03:44:41.387Z,23.70
2023-03-11T03:47:09.974Z,22.60
2023-03-11T03:49:38.680Z,19.90
2023-03-11T03:52:07.288Z,23.20
2023-03-11T03:54:35.440Z,16.70
2023-03-11T03:57:04.410Z,18.50
2023-03-11T03:59:33.234Z,18.70
2023-03-11T04:02:04.562Z,21.30
2023-03-11T04:04:33.737Z,20.60
2023-03-11T04:07:04.562Z,22.20
2023-03-11T04:09:33.419Z,23.10
2023-03-11T04:12:02.270Z,24.00
2023-03-11T04:14:31.632Z,23.30
2023-03-11T04:17:04.165Z,21.40
2023-03-11T04:19:33.099Z,21.70
2023-03-11T04:22:01.284Z,24.80
2023-03-11T04:24:30.418Z,19.60
2023-03-11T04:26:58.951Z,21.40
2023-03-11T04:29:27.101Z,24.40
2023-03-11T04:31:56.000Z,23.00
2023-03-11T04:34:36.070Z,23.40
2023-03-11T04:37:05.036Z,25.00
2023-03-11T04:39:35.124Z,26.90
2023-03-11T04:42:04.150Z,23.10
2023-03-11T04:44:35.582Z,24.70
2023-03-11T04:47:09.722Z,23.70
2023-03-11T04:49:40.437Z,28.30
2023-03-11T04:52:09.240Z,22.60
2023-03-11T04:54:37.472Z,22.60
2023-03-11T04:57:06.218Z,23.60
2023-03-11T04:59:36.034Z,25.30
2023-03-11T05:02:05.137Z,22.30
2023-03-11T05:04:33.790Z,23.50
2023-03-11T05:07:02.030Z,28.60
2023-03-11T05:09:31.425Z,24.90
2023-03-11T05:12:02.714Z,27.70
2023-03-11T05:14:34.975Z,24.40
2023-03-11T05:17:05.422Z,24.70
2023-03-11T05:19:40.856Z,24.60
2023-03-11T05:22:17.152Z,23.30
2023-03-11T05:27:39.631Z,22.90
2023-03-11T05:30:16.610Z,24.70
2023-03-11T05:35:33.781Z,28.30
2023-03-11T05:38:08.257Z,26.00
2023-03-11T05:40:39.012Z,26.40
2023-03-11T05:43:11.478Z,25.20
2023-03-11T05:45:41.099Z,28.50
2023-03-11T05:48:09.373Z,27.30
2023-03-11T05:50:38.239Z,31.00
2023-03-11T05:53:07.718Z,25.60
2023-03-11T05:55:36.591Z,28.90
2023-03-11T05:58:06.777Z,31.90
2023-03-11T06:00:37.068Z,34.10
2023-03-11T06:03:19.468Z,28.10
2023-03-11T06:05:49.712Z,25.60
2023-03-11T06:08:19.823Z,25.00
2023-03-11T06:10:49.004Z,33.80
2023-03-11T06:13:18.203Z,27.30
2023-03-11T06:15:56.760Z,24.20
2023-03-11T06:18:35.969Z,28.80
2023-03-11T06:21:11.181Z,26.60
2023-03-11T06:23:47.243Z,25.60
2023-03-11T06:26:21.367Z,23.70
2023-03-11T06:28:52.351Z,21.70
2023-03-11T06:31:31.258Z,24.90
2023-03-11T06:34:14.565Z,26.30
2023-03-11T06:36:47.447Z,24.40
2023-03-11T06:39:17.991Z,27.40
2023-03-11T06:41:49.226Z,26.50
2023-03-11T06:44:18.047Z,33.00
2023-03-11T06:46:51.922Z,27.70
2023-03-11T06:49:23.801Z,25.80
2023-03-11T06:51:52.165Z,26.10
2023-03-11T06:54:20.554Z,26.30
2023-03-11T06:56:59.057Z,25.60
2023-03-11T06:59:29.726Z,23.60
2023-03-11T07:02:04.884Z,26.50
2023-03-11T07:04:33.923Z,24.00
2023-03-11T07:07:09.071Z,22.50
2023-03-11T07:12:30.588Z,26.20
2023-03-11T07:15:02.279Z,16.10
2023-03-11T07:17:38.307Z,26.60
2023-03-11T07:20:23.070Z,25.70
2023-03-11T07:22:51.745Z,40.30
2023-03-11T07:25:25.791Z,24.70
2023-03-11T07:27:54.751Z,32.60
2023-03-11T07:33:09.120Z,33.30
2023-03-11T07:35:40.067Z,27.00
2023-03-11T07:38:08.710Z,24.80
2023-03-11T07:40:37.219Z,27.10
2023-03-11T07:43:05.592Z,26.40
2023-03-11T07:45:35.312Z,26.60
2023-03-11T07:48:04.050Z,26.40
2023-03-11T07:50:33.424Z,33.80
2023-03-11T07:53:01.589Z,26.90
2023-03-11T07:55:32.553Z,27.50
2023-03-11T07:58:01.195Z,33.50
2023-03-11T08:00:29.622Z,23.60
2023-03-11T08:02:57.960Z,29.20
2023-03-11T08:05:26.037Z,25.70
2023-03-11T08:07:54.424Z,24.30
2023-03-11T08:10:24.084Z,27.10
2023-03-11T08:12:54.914Z,27.60
2023-03-11T08:15:23.215Z,27.50
2023-03-11T08:17:52.621Z,26.80
2023-03-11T08:20:21.001Z,22.70
2023-03-11T08:22:57.923Z,31.70
2023-03-11T08:25:27.189Z,30.00
2023-03-11T08:27:55.469Z,26.90
2023-03-11T08:30:23.951Z,28.30
2023-03-11T08:33:03.191Z,28.60
2023-03-11T08:35:32.259Z,34.20
2023-03-11T08:38:01.110Z,35.40
2023-03-11T08:40:30.267Z,37.90
2023-03-11T08:42:58.358Z,44.60
2023-03-11T08:45:27.181Z,41.10
2023-03-11T08:47:55.483Z,48.10
2023-03-11T08:50:24.126Z,45.20
2023-03-11T08:52:52.238Z,46.90
2023-03-11T08:55:25.216Z,56.10
2023-03-11T08:57:53.377Z,54.20
2023-03-11T09:00:22.996Z,48.50
2023-03-11T09:02:51.387Z,47.40
2023-03-11T09:05:19.542Z,50.90
2023-03-11T09:07:49.926Z,46.50
2023-03-11T09:10:18.403Z,45.50
2023-03-11T09:12:47.564Z,39.50
2023-03-11T09:15:16.894Z,46.90
2023-03-11T09:17:45.696Z,38.90
2023-03-11T09:20:14.745Z,37.90
2023-03-11T09:22:43.588Z,33.60
2023-03-11T09:25:12.488Z,29.70
2023-03-11T09:27:45.139Z,32.50
2023-03-11T09:30:14.472Z,28.80
2023-03-11T09:32:43.023Z,30.50
2023-03-11T09:35:13.231Z,32.30
2023-03-11T09:37:41.571Z,33.00
2023-03-11T09:40:13.413Z,30.80
2023-03-11T09:43:04.841Z,30.40
2023-03-11T09:45:35.164Z,35.50
2023-03-11T09:48:04.542Z,34.40
2023-03-11T09:50:48.772Z,35.40
2023-03-11T09:53:37.977Z,35.00
2023-03-11T09:56:08.760Z,34.90
2023-03-11T09:58:53.705Z,42.10
2023-03-11T10:03:51.511Z,47.00
2023-03-11T10:06:24.548Z,38.50
2023-03-11T10:08:59.352Z,41.20
2023-03-11T10:11:57.296Z,49.70
2023-03-11T10:14:31.986Z,45.30
2023-03-11T10:17:17.173Z,45.90
2023-03-11T10:19:51.721Z,48.30
2023-03-11T10:22:32.105Z,36.90
2023-03-11T10:25:05.502Z,46.60
2023-03-11T10:27:50.159Z,50.80
2023-03-11T10:30:33.813Z,48.00
2023-03-11T10:33:33.168Z,45.80
2023-03-11T10:36:05.233Z,44.80
2023-03-11T10:38:35.415Z,44.90
2023-03-11T10:41:06.452Z,41.00
2023-03-11T10:43:40.772Z,45.40
2023-03-11T10:46:20.819Z,47.80
2023-03-11T10:48:49.422Z,46.90
2023-03-11T10:51:24.610Z,52.00
2023-03-11T10:53:54.572Z,42.80
2023-03-11T10:56:42.979Z,43.10
2023-03-11T10:59:26.479Z,39.10
2023-03-11T11:02:01.292Z,37.20
2023-03-11T11:04:30.922Z,41.10
2023-03-11T11:07:00.738Z,42.70
2023-03-11T11:09:31.149Z,45.60
2023-03-11T11:12:02.111Z,43.20
2023-03-11T11:14:44.468Z,48.70
2023-03-11T11:17:19.954Z,49.50
2023-03-11T11:19:51.794Z,52.30
2023-03-11T11:22:21.933Z,48.80
2023-03-11T11:24:51.810Z,51.00
2023-03-11T11:27:28.699Z,48.20
2023-03-11T11:30:08.957Z,53.60
2023-03-11T11:32:38.781Z,53.00
2023-03-11T11:35:16.741Z,47.90
2023-03-11T11:37:54.089Z,45.60
2023-03-11T11:40:29.139Z,41.20
2023-03-11T11:43:06.137Z,42.80
2023-03-11T11:45:36.140Z,43.00
2023-03-11T11:48:19.912Z,41.50
2023-03-11T11:51:21.756Z,41.10
2023-03-11T11:53:55.821Z,43.20
2023-03-11T11:56:25.687Z,44.20
2023-03-11T11:58:54.886Z,42.70
2023-03-11T12:01:40.342Z,39.50
2023-03-11T12:04:27.532Z,37.20
2023-03-11T12:07:01.429Z,39.30
2023-03-11T12:09:58.619Z,26.40
2023-03-11T12:12:37.184Z,40.80
2023-03-11T12:15:08.235Z,41.10
2023-03-11T12:17:38.470Z,41.30
2023-03-11T12:20:24.486Z,42.90
2023-03-11T12:23:08.008Z,43.50
2023-03-11T12:26:03.593Z,47.20
2023-03-11T12:28:40.971Z,40.30
2023-03-11T12:31:10.882Z,41.70
2023-03-11T12:33:50.675Z,41.20
2023-03-11T12:36:35.188Z,40.90
2023-03-11T12:39:07.253Z,40.60
2023-03-11T12:41:42.321Z,37.30
2023-03-11T12:47:19.190Z,38.00
2023-03-11T12:52:58.087Z,36.20
2023-03-11T12:55:36.593Z,34.20
2023-03-11T12:58:30.491Z,38.20
2023-03-11T13:01:17.618Z,36.80
2023-03-11T13:04:09.044Z,39.40
2023-03-11T13:07:01.038Z,34.00
2023-03-11T13:10:04.847Z,37.70
2023-03-11T13:12:40.735Z,38.60
2023-03-11T13:15:22.688Z,37.50
2023-03-11T13:18:14.032Z,42.90
2023-03-11T13:20:51.787Z,38.00
2023-03-11T13:23:22.823Z,38.10
2023-03-11T13:25:55.844Z,41.40
2023-03-11T13:28:46.463Z,40.40
2023-03-11T13:34:53.827Z,42.80
2023-03-11T13:37:50.768Z,40.50
2023-03-11T13:40:39.340Z,41.00
2023-03-11T13:43:12.176Z,44.60
2023-03-11T13:45:41.303Z,44.50
2023-03-11T13:48:45.444Z,53.50
2023-03-11T13:51:44.297Z,41.80
2023-03-11T13:54:20.264Z,41.60
2023-03-11T13:56:55.073Z,41.90
2023-03-11T13:59:24.371Z,40.80
2023-03-11T14:01:54.087Z,37.20
2023-03-11T14:04:29.561Z,39.80
2023-03-11T14:06:58.255Z,36.90
2023-03-11T14:09:32.037Z,38.90
2023-03-11T14:12:07.891Z,39.20
2023-03-11T14:14:51.219Z,39.40
2023-03-11T14:17:27.596Z,38.30
2023-03-11T14:20:07.088Z,36.30
2023-03-11T14:22:35.253Z,34.60
2023-03-11T14:25:08.886Z,38.90
2023-03-11T14:27:38.186Z,39.70
2023-03-11T14:30:06.851Z,32.30
2023-03-11T14:35:21.351Z,32.00
2023-03-11T14:37:53.938Z,33.10
2023-03-11T14:40:25.914Z,35.20
2023-03-11T14:43:01.977Z,33.10
2023-03-11T14:45:32.869Z,31.50
2023-03-11T14:48:17.305Z,28.10
2023-03-11T14:50:49.664Z,30.40
2023-03-11T14:53:22.505Z,28.50
2023-03-11T14:55:51.974Z,27.40
2023-03-11T14:58:24.060Z,28.50
2023-03-11T15:01:01.271Z,31.00
2023-03-11T15:03:39.734Z,28.90
2023-03-11T15:06:15.156Z,24.10
2023-03-11T15:08:46.404Z,28.00
2023-03-11T15:11:15.394Z,24.40
2023-03-11T15:13:46.544Z,28.10
2023-03-11T15:16:26.763Z,24.10
2023-03-11T15:18:54.878Z,24.60
2023-03-11T15:21:28.574Z,25.60
2023-03-11T15:24:06.565Z,26.90
2023-03-11T15:26:35.918Z,21.60
2023-03-11T15:29:13.195Z,27.70
2023-03-11T15:31:46.879Z,24.80
2023-03-11T15:34:18.178Z,23.50
2023-03-11T15:36:50.378Z,28.70
2023-03-11T15:39:29.043Z,25.70
2023-03-11T15:42:02.127Z,27.60
2023-03-11T15:44:42.239Z,25.60
2023-03-11T15:47:18.336Z,27.50
2023-03-11T15:49:46.595Z,29.50
2023-03-11T15:52:14.745Z,32.60
2023-03-11T15:54:47.400Z,29.50
2023-03-11T15:57:25.301Z,35.10
2023-03-11T15:59:56.221Z,36.60
2023-03-11T16:02:26.430Z,32.00
2023-03-11T16:04:55.071Z,33.10
2023-03-11T16:07:38.252Z,38.50
2023-03-11T16:10:08.909Z,39.70
2023-03-11T16:12:44.783Z,40.10
2023-03-11T16:15:24.874Z,42.90
2023-03-11T16:17:55.543Z,46.70
2023-03-11T16:20:32.315Z,46.00
2023-03-11T16:23:01.644Z,46.70
2023-03-11T16:25:35.106Z,43.60
2023-03-11T16:28:03.521Z,50.70
2023-03-11T16:30:33.783Z,45.50
2023-03-11T16:33:05.205Z,43.80
2023-03-11T16:35:34.317Z,43.20
2023-03-11T16:38:04.622Z,40.70
2023-03-11T16:40:40.066Z,42.00
2023-03-11T16:45:40.020Z,38.30
2023-03-11T16:48:08.261Z,39.50
2023-03-11T16:50:40.686Z,40.80
2023-03-11T16:53:11.825Z,42.40
2023-03-11T16:55:51.093Z,38.80
2023-03-11T16:58:19.544Z,36.00
2023-03-11T17:00:53.349Z,36.90
2023-03-11T17:03:22.129Z,39.40
2023-03-11T17:05:53.915Z,33.40
2023-03-11T17:08:27.859Z,34.50
2023-03-11T17:10:56.242Z,35.30
2023-03-11T17:13:28.790Z,31.00
2023-03-11T17:16:00.497Z,34.10
2023-03-11T17:18:45.926Z,32.30
2023-03-11T17:21:15.222Z,33.50
2023-03-11T17:23:45.310Z,28.80
2023-03-11T17:26:16.849Z,29.70
2023-03-11T17:28:46.932Z,28.30
2023-03-11T17:31:18.520Z,28.10
2023-03-11T17:33:49.698Z,27.90
2023-03-11T17:36:18.401Z,32.20
2023-03-11T17:38:53.987Z,29.80
2023-03-11T17:41:22.845Z,34.60
2023-03-11T17:43:54.120Z,36.80
2023-03-11T17:46:26.756Z,35.40
2023-03-11T17:48:57.232Z,36.00
2023-03-11T17:54:10.395Z,39.40
2023-03-11T17:56:42.560Z,33.40
2023-03-11T17:59:11.336Z,31.80
2023-03-11T18:01:44.852Z,38.00
2023-03-11T18:04:20.164Z,33.40
2023-03-11T18:09:46.568Z,37.40
2023-03-11T18:12:28.319Z,37.20
2023-03-11T18:14:58.511Z,37.40
2023-03-11T18:17:30.073Z,41.40
2023-03-11T18:20:00.733Z,40.20
2023-03-11T18:22:35.569Z,35.70
2023-03-11T18:25:12.704Z,39.90
2023-03-11T18:27:41.176Z,37.30
2023-03-11T18:30:16.366Z,35.80
2023-03-11T18:33:02.271Z,39.70
2023-03-11T18:35:35.367Z,37.10
2023-03-11T18:40:59.368Z,31.70
2023-03-11T18:43:42.105Z,33.10
2023-03-11T18:46:20.464Z,33.60
2023-03-11T18:49:16.185Z,32.40
2023-03-11T18:51:56.163Z,31.00
2023-03-11T18:54:40.366Z,31.70
2023-03-11T18:57:27.168Z,35.50
2023-03-11T18:59:59.604Z,34.60
2023-03-11T19:02:33.402Z,42.80
2023-03-11T19:05:04.405Z,38.00
2023-03-11T19:07:37.140Z,34.70
2023-03-11T19:10:09.646Z,38.60
2023-03-11T19:12:44.420Z,40.40
2023-03-11T19:15:14.248Z,46.10
2023-03-11T19:18:00.522Z,42.00
2023-03-11T19:20:34.984Z,37.70
2023-03-11T19:23:03.411Z,39.70
2023-03-11T19:25:33.186Z,40.50
2023-03-11T19:28:01.999Z,45.50
2023-03-11T19:30:33.292Z,49.50
2023-03-11T19:33:02.346Z,48.20
2023-03-11T19:35:31.036Z,47.90
2023-03-11T19:38:06.608Z,51.10
2023-03-11T19:40:36.225Z,52.50
2023-03-11T19:43:05.863Z,54.30
2023-03-11T19:45:35.244Z,47.00
2023-03-11T19:48:04.049Z,46.20
2023-03-11T19:50:33.947Z,48.80
2023-03-11T19:53:02.312Z,48.50
2023-03-11T19:55:30.792Z,40.40
2023-03-11T19:58:01.030Z,36.50
2023-03-11T20:00:30.630Z,33.80
2023-03-11T20:03:02.438Z,31.00
2023-03-11T20:05:31.497Z,33.90
2023-03-11T20:07:59.952Z,25.70
2023-03-11T20:10:33.381Z,24.30
2023-03-11T20:13:04.773Z,26.70
2023-03-11T20:15:33.131Z,24.00
2023-03-11T20:18:06.242Z,24.70
2023-03-11T20:20:35.372Z,21.60
2023-03-11T20:23:04.146Z,25.20
2023-03-11T20:25:40.207Z,20.70
2023-03-11T20:28:09.138Z,22.80
2023-03-11T20:30:38.104Z,20.40
2023-03-11T20:33:07.300Z,23.80
2023-03-11T20:35:37.106Z,27.20
2023-03-11T20:38:05.844Z,27.20
2023-03-11T20:40:35.407Z,32.70
2023-03-11T20:43:04.495Z,32.20
2023-03-11T20:45:33.490Z,30.60
2023-03-11T20:48:02.561Z,30.10
2023-03-11T20:50:31.411Z,29.60
2023-03-11T20:52:59.959Z,36.40
2023-03-11T20:55:28.034Z,34.10
2023-03-11T20:57:56.487Z,31.50
2023-03-11T21:00:30.000Z,28.20
2023-03-11T21:03:00.565Z,27.90
2023-03-11T21:05:29.473Z,23.60
2023-03-11T21:07:57.571Z,19.80
2023-03-11T21:10:26.193Z,16.50
2023-03-11T21:12:56.167Z,18.80
2023-03-11T21:15:26.113Z,16.90
2023-03-11T21:17:56.202Z,14.80
2023-03-11T21:20:25.770Z,18.10
2023-03-11T21:22:54.862Z,15.40
2023-03-11T21:25:28.708Z,13.00
2023-03-11T21:27:57.426Z,15.70
2023-03-11T21:30:27.234Z,16.20
2023-03-11T21:32:55.716Z,12.40
2023-03-11T21:35:24.259Z,14.00
2023-03-11T21:37:54.558Z,11.90
2023-03-11T21:40:23.303Z,13.60
2023-03-11T21:42:51.944Z,12.10
2023-03-11T21:45:20.510Z,11.40
2023-03-11T21:47:49.050Z,14.60
2023-03-11T21:50:26.944Z,11.10
2023-03-11T21:52:57.452Z,10.80
2023-03-11T21:55:25.868Z,11.40
2023-03-11T21:57:54.009Z,10.90
2023-03-11T22:00:23.474Z,11.90
2023-03-11T22:02:52.649Z,9.60
2023-03-11T22:05:21.151Z,9.10
2023-03-11T22:07:49.233Z,8.70
2023-03-11T22:10:18.163Z,8.40
2023-03-11T22:12:49.490Z,11.70
2023-03-11T22:15:18.423Z,6.40
2023-03-11T22:17:48.428Z,6.60
2023-03-11T22:20:17.358Z,7.40
2023-03-11T22:22:45.588Z,8.10
2023-03-11T22:25:17.069Z,6.50
2023-03-11T22:27:46.123Z,6.20
2023-03-11T22:30:14.628Z,5.60
2023-03-11T22:32:44.373Z,8.80
2023-03-11T22:35:13.456Z,4.90
2023-03-11T22:37:41.654Z,4.60
2023-03-11T22:40:10.519Z,3.70
2023-03-11T22:42:39.120Z,5.10
2023-03-11T22:45:08.996Z,4.70
2023-03-11T22:47:38.692Z,2.70
2023-03-11T22:50:07.549Z,3.10
2023-03-11T22:52:36.262Z,3.40
2023-03-11T22:55:05.240Z,4.00
2023-03-11T22:57:39.024Z,5.00
2023-03-11T23:00:17.356Z,3.60
2023-03-11T23:02:46.597Z,3.90
2023-03-11T23:05:15.703Z,2.50
2023-03-11T23:07:43.972Z,4.90
2023-03-11T23:10:13.656Z,6.40
2023-03-11T23:12:45.736Z,4.40
2023-03-11T23:15:18.476Z,3.90
2023-03-11T23:17:46.745Z,2.90
2023-03-11T23:20:15.429Z,3.70
2023-03-11T23:22:43.896Z,2.60
2023-03-11T23:25:14.654Z,4.40
2023-03-11T23:27:44.240Z,4.10
2023-03-11T23:30:13.926Z,3.70
2023-03-11T23:32:45.743Z,5.00
2023-03-11T23:35:13.929Z,4.00
2023-03-11T23:37:41.984Z,4.40
2023-03-11T23:40:10.656Z,6.00
2023-03-11T23:42:39.274Z,3.60
2023-03-11T23:45:08.194Z,3.70
2023-03-11T23:47:37.018Z,4.90
2023-03-11T23:50:06.699Z,3.90
2023-03-11T23:52:36.285Z,4.40
2023-03-11T23:55:04.838Z,4.90
2023-03-11T23:57:35.901Z,4.70
